Flight Track Log - Related Links

Times and Time Zones

All times are in EDT time to prevent confusion due to time zone crossing. See the ASH3770 flight status page for this flight to view local times or setup timezone preferences in your user account.

Time Position Orientation Groundspeed Altitude Reporting Facility
EDT Latitude Longitude Course Direction KTS MPH feet Rate Location/Type
Sun 12:52:36 PM 38.9333 -77.5500 270° West 202 232 2,200  Level Potomac TRACON
Sun 12:53:36 PM 38.9333 -77.6333 270° West 250 288 4,600 2,526 Climbing Potomac TRACON
Sun 12:54:30 PM 38.9167 -77.7167 256° West 241 277 7,000 2,367 Climbing Potomac TRACON
Sun 12:55:25 PM 38.9103 -77.7764 262° West 247 284 8,900 2,035 Climbing Washington Center
Sun 12:56:25 PM 38.9006 -77.8561 261° West 247 284 10,900 1,800 Climbing Washington Center
Sun 12:57:25 PM 38.8836 -77.9758 260° West 270 311 12,500 1,600 Climbing Washington Center
Sun 12:58:25 PM 38.8689 -78.0844 260° West 295 339 14,100 1,650 Climbing Washington Center
Sun 12:59:25 PM 38.8539 -78.1986 260° West 314 361 15,800 1,750 Climbing Washington Center
Sun 01:00:25 PM 38.8514 -78.3133 268° West 323 372 17,600 1,500 Climbing Washington Center
Sun 01:01:25 PM 38.8486 -78.4331 268° West 329 379 18,800 1,350 Climbing Washington Center
Sun 01:02:25 PM 38.8497 -78.5558 271° West 340 391 20,300 1,400 Climbing Washington Center
Sun 01:03:25 PM 38.8467 -78.6808 268° West 345 397 21,600 1,250 Climbing Washington Center
Sun 01:04:25 PM 38.8433 -78.8086 268° West 355 409 22,800 1,100 Climbing Washington Center
Sun 01:05:25 PM 38.8419 -78.9392 269° West 366 421 23,800 600 Climbing Washington Center
Sun 01:06:25 PM 38.8422 -79.0753 270° West 373 429 24,000 100 Climbing Washington Center
Sun 01:07:25 PM 38.8339 -79.2161 266° West 387 445 24,000 200 Level Washington Center
Sun 01:08:25 PM 38.8086 -79.3586 257° West 405 466 24,400 950 Climbing Washington Center
Sun 01:09:25 PM 38.7833 -79.4958 257° West 405 466 25,900 800 Climbing Washington Center
Sun 01:10:25 PM 38.7639 -79.6414 260° West 411 473 26,000 50 Climbing Washington Center
Sun 01:11:25 PM 38.7383 -79.7811 257° West 411 473 26,000  Level Washington Center
Sun 01:12:25 PM 38.7153 -79.9019 256° West 406 467 26,000  Level Washington Center
Sun 01:13:25 PM 38.6869 -80.0442 256° West 406 467 26,000  Level Washington Center
Sun 01:14:37 PM 38.6533 -80.2133 256° West 402 463 26,000  Level Indianapolis Center
Sun 01:15:39 PM 38.6267 -80.3522 256° West 401 461 26,000  Level Indianapolis Center
Sun 01:16:41 PM 38.6019 -80.4894 257° West 397 457 26,000  Level Indianapolis Center
Sun 01:17:43 PM 38.5756 -80.6294 256° West 403 464 26,000  Level Indianapolis Center
Sun 01:18:45 PM 38.5478 -80.7672 256° West 399 459 26,000  Level Indianapolis Center
Sun 01:19:47 PM 38.5119 -80.9003 251° West 393 452 26,000  Level Indianapolis Center
Sun 01:20:49 PM 38.4556 -81.0531 245° Southwest 395 455 26,000  Level Indianapolis Center
Sun 01:21:51 PM 38.4103 -81.1781 245° Southwest 388 447 26,000  Level Indianapolis Center
Sun 01:22:54 PM 38.3625 -81.3047 244° Southwest 392 451 26,000  Level Indianapolis Center
Sun 01:23:55 PM 38.3169 -81.4294 245° Southwest 387 445 26,000  Level Indianapolis Center
Sun 01:24:57 PM 38.2842 -81.5606 252° West 387 445 26,000  Level Indianapolis Center
Sun 01:25:59 PM 38.2511 -81.6906 252° West 384 442 26,000  Level Indianapolis Center
Sun 01:27:01 PM 38.2178 -81.8214 252° West 386 444 26,000  Level Indianapolis Center
Sun 01:28:03 PM 38.1839 -81.9531 252° West 390 449 26,000  Level Indianapolis Center
Sun 01:29:05 PM 38.1433 -82.1133 252° West 394 453 26,000  Level Indianapolis Center
Sun 01:30:07 PM 38.1078 -82.2500 252° West 404 465 26,000  Level Indianapolis Center
Sun 01:31:09 PM 38.0700 -82.3953 252° West 404 465 26,000  Level Indianapolis Center
Sun 01:32:11 PM 38.0353 -82.5297 252° West 403 464 26,000  Level Indianapolis Center
Sun 01:33:13 PM 38.0000 -82.6642 252° West 404 465 26,000  Level Indianapolis Center
Sun 01:34:15 PM 37.9639 -82.7986 251° West 403 464 26,000  Level Indianapolis Center
Sun 01:35:17 PM 37.9286 -82.9353 252° West 408 470 26,000  Level Indianapolis Center
Sun 01:36:19 PM 37.8917 -83.0694 251° West 406 467 26,000  Level Indianapolis Center
Sun 01:37:21 PM 37.8500 -83.2264 251° West 406 467 26,000  Level Indianapolis Center
Sun 01:38:23 PM 37.8142 -83.3606 251° West 404 465 26,000 339 Level Indianapolis Center
Sun 01:39:25 PM 37.7781 -83.4947 251° West 406 467 26,700 1,113 Climbing Indianapolis Center
Sun 01:40:27 PM 37.7428 -83.6242 251° West 394 453 28,300 1,366 Climbing Indianapolis Center
Sun 01:41:28 PM 37.7094 -83.7481 251° West 377 434 29,500 1,171 Climbing Indianapolis Center
Sun 01:42:30 PM 37.6694 -83.8894 250° West 369 425 30,700 1,065 Climbing Indianapolis Center
Sun 01:43:32 PM 37.6358 -84.0100 251° West 365 420 31,700 968 Climbing Indianapolis Center
Sun 01:44:34 PM 37.6025 -84.1281 250° West 358 412 32,700 968 Climbing Indianapolis Center
Sun 01:45:36 PM 37.5719 -84.2425 251° West 347 399 33,700 629 Climbing Indianapolis Center
Sun 01:46:38 PM 37.5397 -84.3558 250° West 346 398 34,000 145 Climbing Indianapolis Center
Sun 01:47:40 PM 37.5058 -84.4733 250° West 356 410 34,000  Level Indianapolis Center
Sun 01:48:42 PM 37.4656 -84.6164 251° West 371 427 34,000  Level Indianapolis Center
Sun 01:49:44 PM 37.4311 -84.7403 251° West 375 432 34,000  Level Indianapolis Center
Sun 01:50:45 PM 37.3947 -84.8672 250° West 383 441 34,000  Level Indianapolis Center
Sun 01:51:47 PM 37.3572 -84.9936 250° West 386 444 34,000  Level Indianapolis Center
Sun 01:52:49 PM 37.3206 -85.1208 250° West 387 445 34,000  Level Indianapolis Center
Sun 01:53:51 PM 37.2775 -85.2678 250° West 383 441 34,000  Level Indianapolis Center
Sun 01:54:53 PM 37.2414 -85.3917 250° West 378 435 34,000  Level Indianapolis Center
Sun 01:55:55 PM 37.2081 -85.5081 250° West 372 428 34,000  Level Indianapolis Center
Sun 01:56:56 PM 37.1733 -85.6247 250° West 374 430 34,000  Level Indianapolis Center
Sun 01:57:44 PM 37.1436 -85.7303 251° West 376 433 34,000  Level Memphis Center
Sun 01:58:44 PM 37.1103 -85.8464 250° West 368 423 34,000  Level Memphis Center
Sun 01:59:44 PM 37.0728 -85.9631 248° West 368 423 34,000  Level Memphis Center
Sun 02:00:44 PM 37.0375 -86.0844 250° West 368 423 34,000  Level Memphis Center
Sun 02:01:44 PM 36.9981 -86.2139 249° West 368 423 34,000  Level Memphis Center
Sun 02:02:44 PM 36.9625 -86.3325 249° West 373 429 34,000  Level Memphis Center
Sun 02:03:44 PM 36.9244 -86.4514 248° West 373 429 34,000  Level Memphis Center
Sun 02:04:44 PM 36.8694 -86.5578 237° Southwest 373 429 34,000  Level Memphis Center
Sun 02:05:44 PM 36.8142 -86.6614 236° Southwest 368 423 34,000  Level Memphis Center
Sun 02:06:44 PM 36.7569 -86.7675 236° Southwest 368 423 34,000  Level Memphis Center
Sun 02:07:44 PM 36.7017 -86.8711 236° Southwest 368 423 34,000  Level Memphis Center
Sun 02:08:44 PM 36.6461 -86.9742 236° Southwest 363 418 34,000  Level Memphis Center
Sun 02:09:44 PM 36.5883 -87.0800 236° Southwest 363 418 34,000  Level Memphis Center
Sun 02:10:44 PM 36.5328 -87.1856 237° Southwest 363 418 34,000  Level Memphis Center
Sun 02:11:44 PM 36.4750 -87.2886 235° Southwest 368 423 34,000  Level Memphis Center
Sun 02:12:44 PM 36.4192 -87.3939 237° Southwest 375 432 34,000  Level Memphis Center
Sun 02:13:44 PM 36.3611 -87.4964 235° Southwest 370 426 34,000  Level Memphis Center
Sun 02:14:44 PM 36.3031 -87.6014 236° Southwest 370 426 34,000  Level Memphis Center
Sun 02:15:44 PM 36.2469 -87.7036 236° Southwest 370 426 34,000  Level Memphis Center
Sun 02:16:44 PM 36.1886 -87.8111 236° Southwest 370 426 34,000  Level Memphis Center
Sun 02:17:44 PM 36.1383 -87.9000 235° Southwest 370 426 34,000  Level Memphis Center
Sun 02:18:44 PM 36.0819 -88.0019 236° Southwest 365 420 34,000  Level Memphis Center
Sun 02:19:44 PM 36.0233 -88.1061 235° Southwest 365 420 34,000  Level Memphis Center
Sun 02:20:44 PM 35.9667 -88.2028 234° Southwest 359 413 34,000  Level Memphis Center
Sun 02:21:44 PM 35.9103 -88.3067 236° Southwest 364 419 34,000  Level Memphis Center
Sun 02:22:44 PM 35.8619 -88.4181 242° Southwest 370 426 34,000  Level Memphis Center
Sun 02:23:44 PM 35.8094 -88.5394 242° Southwest 375 432 34,000  Level Memphis Center
Sun 02:24:44 PM 35.7611 -88.6531 242° Southwest 375 432 34,000  Level Memphis Center
Sun 02:25:44 PM 35.7125 -88.7667 242° Southwest 375 432 34,000  Level Memphis Center
Sun 02:26:44 PM 35.6681 -88.8800 244° Southwest 370 426 34,000  Level Memphis Center
Sun 02:27:44 PM 35.6214 -88.9933 243° Southwest 370 426 34,000  Level Memphis Center
Sun 02:28:44 PM 35.5725 -89.1064 242° Southwest 370 426 34,000  Level Memphis Center
Sun 02:29:44 PM 35.5297 -89.2039 242° Southwest 370 426 34,000  Level Memphis Center
Sun 02:30:44 PM 35.4806 -89.3194 242° Southwest 375 432 34,000  Level Memphis Center
Sun 02:31:44 PM 35.4336 -89.4319 243° Southwest 375 432 34,000  Level Memphis Center
Sun 02:32:44 PM 35.3844 -89.5472 242° Southwest 375 432 34,000  Level Memphis Center
Sun 02:33:44 PM 35.3350 -89.6647 243° Southwest 375 432 34,000  Level Memphis Center
Sun 02:34:44 PM 35.2875 -89.7772 243° Southwest 375 432 34,000  Level Memphis Center
Sun 02:35:44 PM 35.2381 -89.8919 242° Southwest 380 437 34,000  Level Memphis Center
Sun 02:36:44 PM 35.1883 -90.0089 243° Southwest 385 443 34,000  Level Memphis Center
Sun 02:37:44 PM 35.1364 -90.1261 242° Southwest 385 443 34,000  Level Memphis Center
Sun 02:38:44 PM 35.0867 -90.2378 241° Southwest 385 443 34,000  Level Memphis Center
Sun 02:39:44 PM 35.0344 -90.3519 241° Southwest 385 443 34,000  Level Memphis Center
Sun 02:40:44 PM 34.9844 -90.4711 243° Southwest 385 443 34,000  Level Memphis Center
Sun 02:41:44 PM 34.9258 -90.5953 240° Southwest 385 443 34,000  Level Memphis Center
Sun 02:42:44 PM 34.8756 -90.7114 242° Southwest 385 443 34,000  Level Memphis Center
Sun 02:43:44 PM 34.8250 -90.8250 242° Southwest 385 443 34,000  Level Memphis Center
Sun 02:44:44 PM 34.7722 -90.9411 241° Southwest 385 443 34,000  Level Memphis Center
Sun 02:45:44 PM 34.7197 -91.0569 241° Southwest 390 449 34,000  Level Memphis Center
Sun 02:46:44 PM 34.6667 -91.1728 241° Southwest 390 449 34,000  Level Memphis Center
Sun 02:47:44 PM 34.6117 -91.2933 241° Southwest 395 455 34,000  Level Memphis Center
Sun 02:48:44 PM 34.5586 -91.4114 241° Southwest 395 455 34,000  Level Memphis Center
Sun 02:49:44 PM 34.5033 -91.5317 241° Southwest 400 460 34,000  Level Memphis Center
Sun 02:50:44 PM 34.4500 -91.6517 242° Southwest 400 460 34,000  Level Memphis Center
Sun 02:51:44 PM 34.3922 -91.7692 239° Southwest 406 467 34,000  Level Memphis Center
Sun 02:52:44 PM 34.3367 -91.8914 241° Southwest 412 474 34,000  Level Memphis Center
Sun 02:53:44 PM 34.2808 -92.0111 241° Southwest 412 474 34,000  Level Memphis Center
Sun 02:54:44 PM 34.2247 -92.1331 241° Southwest 412 474 34,000  Level Memphis Center
Sun 02:55:44 PM 34.1689 -92.2575 242° Southwest 412 474 34,000  Level Memphis Center
Sun 02:56:44 PM 34.1128 -92.3717 239° Southwest 412 474 34,000  Level Memphis Center
Sun 02:57:44 PM 34.0628 -92.4958 244° Southwest 412 474 34,000  Level Memphis Center
Sun 02:58:44 PM 34.0022 -92.6147 238° Southwest 412 474 34,000  Level Memphis Center
Sun 03:00:51 PM 33.8903 -92.8572 241° Southwest 415 478 34,000  Level Fort Center
Sun 03:01:51 PM 33.8319 -92.9778 240° Southwest 415 478 34,000  Level Fort Center
Sun 03:02:51 PM 33.7756 -93.0906 239° Southwest 409 471 34,000  Level Fort Center
Sun 03:03:51 PM 33.7211 -93.2081 241° Southwest 409 471 34,000  Level Fort Center
Sun 03:04:51 PM 33.6664 -93.3206 240° Southwest 409 471 34,000  Level Fort Center
Sun 03:05:51 PM 33.6136 -93.4328 241° Southwest 404 465 34,000  Level Fort Center
Sun 03:06:51 PM 33.5586 -93.5450 240° Southwest 404 465 34,000  Level Fort Center
Sun 03:07:51 PM 33.5036 -93.6569 240° Southwest 404 465 34,000  Level Fort Center
Sun 03:08:51 PM 33.4506 -93.7664 240° Southwest 399 459 34,000  Level Fort Center
Sun 03:09:51 PM 33.3856 -93.8983 239° Southwest 401 461 34,000  Level Fort Center
Sun 03:10:51 PM 33.3361 -93.9972 239° Southwest 406 467 34,000  Level Fort Center
Sun 03:11:51 PM 33.2747 -94.1264 240° Southwest 406 467 34,000  Level Fort Center
Sun 03:12:51 PM 33.2172 -94.2403 239° Southwest 406 467 34,000  Level Fort Center
Sun 03:13:51 PM 33.1594 -94.3564 239° Southwest 412 474 34,000  Level Fort Center
Sun 03:14:51 PM 33.0997 -94.4725 238° Southwest 412 474 34,000  Level Fort Center
Sun 03:15:51 PM 33.0417 -94.5883 239° Southwest 412 474 34,000  Level Fort Center
Sun 03:16:51 PM 32.9819 -94.7117 240° Southwest 412 474 34,000  Level Fort Center
Sun 03:17:51 PM 32.9217 -94.8322 239° Southwest 417 480 34,000  Level Fort Center
Sun 03:18:51 PM 32.8617 -94.9525 239° Southwest 422 486 34,000  Level Fort Center
Sun 03:19:51 PM 32.7992 -95.0753 239° Southwest 434 499 34,000  Level Fort Center
Sun 03:20:51 PM 32.7367 -95.1956 238° Southwest 434 499 34,000  Level Fort Center
Sun 03:21:51 PM 32.6781 -95.3181 240° Southwest 434 499 34,000  Level Fort Center
Sun 03:22:51 PM 32.6175 -95.4378 239° Southwest 427 491 34,000  Level Fort Center
Sun 03:23:51 PM 32.5547 -95.5600 239° Southwest 433 498 34,000  Level Fort Center
Sun 03:24:51 PM 32.4958 -95.6744 239° Southwest 433 498 34,000  Level Fort Center
Sun 03:25:51 PM 32.4347 -95.7936 239° Southwest 433 498 34,000  Level Fort Center
Sun 03:26:51 PM 32.3714 -95.9131 238° Southwest 433 498 34,000  Level Fort Center
Sun 03:27:51 PM 32.3103 -96.0344 239° Southwest 433 498 34,000  Level Fort Center
Sun 03:28:51 PM 32.2467 -96.1581 239° Southwest 438 504 34,000 -150 Level Fort Center
Sun 03:29:51 PM 32.1853 -96.2792 239° Southwest 432 497 33,700 -700 Descending Fort Center
Sun 03:30:51 PM 32.1153 -96.4078 237° Southwest 432 497 32,600 -1,050 Descending Fort Center
Sun 03:31:51 PM 32.0472 -96.5189 234° Southwest 432 497 31,600 -900 Descending Fort Center
Sun 03:32:51 PM 31.9664 -96.5881 216° Southwest 432 497 30,800 -950 Descending Fort Center
Sun 03:33:51 PM 31.8583 -96.6772 215° Southwest 440 506 29,700 -1,250 Descending Fort Center
Sun 03:34:51 PM 31.7606 -96.7586 215° Southwest 446 513 28,300 -1,500 Descending Fort Center
Sun 03:35:51 PM 31.6589 -96.8422 215° Southwest 446 513 26,700 -1,582 Descending Fort Center
Sun 03:36:41 PM 31.5736 -96.9103 214° Southwest 436 502 25,400 -1,607 Descending Houston Center
Sun 03:37:43 PM 31.4767 -96.9897 215° Southwest 424 488 23,700 -1,597 Descending Houston Center
Sun 03:38:45 PM 31.3825 -97.0669 215° Southwest 412 474 22,100 -1,548 Descending Houston Center
Sun 03:39:47 PM 31.2914 -97.1414 215° Southwest 398 458 20,500 -1,210 Descending Houston Center
Sun 03:40:49 PM 31.1850 -97.2172 211° Southwest 385 443 19,600 -1,403 Descending Houston Center
Sun 03:41:51 PM 31.0819 -97.2581 199° South 388 447 17,600 -1,839 Descending Houston Center
Sun 03:42:53 PM 30.9831 -97.2969 199° South 380 437 15,800 -1,694 Descending Houston Center
Sun 03:43:55 PM 30.8900 -97.3328 198° South 369 425 14,100 -1,500 Descending Houston Center
Sun 03:44:57 PM 30.7847 -97.3750 199° South 346 398 12,700 -1,258 Descending Houston Center
Sun 03:45:59 PM 30.7119 -97.4258 211° Southwest 309 356 11,500 -1,258 Descending Houston Center
Sun 03:47:01 PM 30.6553 -97.4847 222° Southwest 278 320 10,100 -1,355 Descending Houston Center
Sun 03:48:03 PM 30.5903 -97.5200 205° Southwest 273 314 8,700 -1,403 Descending Houston Center
Sun 03:49:05 PM 30.5153 -97.5247 183° South 275 316 7,200 -1,500 Descending Houston Center
Sun 03:50:07 PM 30.4722 -97.5939 234° Southwest 266 306 5,600 -1,403 Descending Houston Center
Sun 03:51:09 PM 30.4106 -97.6397 213° Southwest 263 303 4,300 -1,113 Descending Houston Center
Sun 03:52:11 PM 30.3464 -97.6858 212° Southwest 238 274 3,300 -1,065 Descending Houston Center
Sun 03:53:13 PM 30.2919 -97.6811 176° South 201 231 2,100 -919 Descending Houston Center
Sun 03:54:15 PM 30.2517 -97.6794 178° South 166 191 1,400 -435 Descending Houston Center
Sun 03:55:17 PM 30.2103 -97.6769 177° South 156 180 1,200 -194 Descending Houston Center
Sun 03:57:00 PM 30.1945 -97.6699 221° Southwest  Level Estimated

Login

Don't have an account? Register now (free) for customized features, flight alerts, and more!